sensor_id;sensor_type;location;lat;lon;timestamp;P1;durP1;ratioP1;P2;durP2;ratioP2
61938;SDS011;47897;50.322;18.892;2022-11-21T00:00:44;329.00;;;108.70;;
61938;SDS011;47897;50.322;18.892;2022-11-21T00:03:11;331.90;;;108.90;;
61938;SDS011;47897;50.322;18.892;2022-11-21T00:05:41;346.50;;;109.70;;
61938;SDS011;47897;50.322;18.892;2022-11-21T00:08:09;318.20;;;106.80;;
61938;SDS011;47897;50.322;18.892;2022-11-21T00:10:36;286.80;;;92.20;;
61938;SDS011;47897;50.322;18.892;2022-11-21T00:13:03;229.90;;;77.40;;
61938;SDS011;47897;50.322;18.892;2022-11-21T00:15:31;217.50;;;66.80;;
61938;SDS011;47897;50.322;18.892;2022-11-21T00:18:00;202.80;;;59.80;;
61938;SDS011;47897;50.322;18.892;2022-11-21T00:20:27;202.60;;;62.80;;
61938;SDS011;47897;50.322;18.892;2022-11-21T00:22:54;187.90;;;58.80;;
61938;SDS011;47897;50.322;18.892;2022-11-21T00:25:20;157.80;;;50.90;;
61938;SDS011;47897;50.322;18.892;2022-11-21T00:27:47;178.60;;;53.40;;
61938;SDS011;47897;50.322;18.892;2022-11-21T00:30:14;171.90;;;54.00;;
61938;SDS011;47897;50.322;18.892;2022-11-21T00:32:40;170.90;;;53.80;;
61938;SDS011;47897;50.322;18.892;2022-11-21T00:35:07;143.10;;;42.70;;
61938;SDS011;47897;50.322;18.892;2022-11-21T00:37:34;166.70;;;47.60;;
61938;SDS011;47897;50.322;18.892;2022-11-21T00:40:00;153.00;;;48.50;;
61938;SDS011;47897;50.322;18.892;2022-11-21T00:42:27;154.00;;;48.10;;
61938;SDS011;47897;50.322;18.892;2022-11-21T00:44:54;167.50;;;53.00;;
61938;SDS011;47897;50.322;18.892;2022-11-21T00:47:20;166.50;;;52.40;;
61938;SDS011;47897;50.322;18.892;2022-11-21T00:49:47;169.50;;;52.20;;
61938;SDS011;47897;50.322;18.892;2022-11-21T00:52:15;169.40;;;50.30;;
61938;SDS011;47897;50.322;18.892;2022-11-21T00:54:41;153.00;;;44.70;;
61938;SDS011;47897;50.322;18.892;2022-11-21T00:57:08;159.10;;;50.10;;
61938;SDS011;47897;50.322;18.892;2022-11-21T00:59:35;152.20;;;46.80;;
61938;SDS011;47897;50.322;18.892;2022-11-21T01:02:01;159.70;;;51.50;;
61938;SDS011;47897;50.322;18.892;2022-11-21T01:04:31;170.80;;;52.30;;
61938;SDS011;47897;50.322;18.892;2022-11-21T01:06:58;164.50;;;47.40;;
61938;SDS011;47897;50.322;18.892;2022-11-21T01:09:25;179.00;;;52.40;;
61938;SDS011;47897;50.322;18.892;2022-11-21T01:11:54;159.50;;;44.40;;
61938;SDS011;47897;50.322;18.892;2022-11-21T01:14:21;167.30;;;47.90;;
61938;SDS011;47897;50.322;18.892;2022-11-21T01:16:47;164.70;;;48.10;;
61938;SDS011;47897;50.322;18.892;2022-11-21T01:19:14;165.40;;;48.20;;
61938;SDS011;47897;50.322;18.892;2022-11-21T01:21:41;165.80;;;49.50;;
61938;SDS011;47897;50.322;18.892;2022-11-21T01:24:09;203.30;;;57.90;;
61938;SDS011;47897;50.322;18.892;2022-11-21T01:26:36;187.60;;;56.00;;
61938;SDS011;47897;50.322;18.892;2022-11-21T01:29:03;153.60;;;48.80;;
61938;SDS011;47897;50.322;18.892;2022-11-21T01:31:30;203.90;;;55.10;;
61938;SDS011;47897;50.322;18.892;2022-11-21T01:33:57;183.90;;;56.60;;
61938;SDS011;47897;50.322;18.892;2022-11-21T01:36:28;182.90;;;56.90;;
61938;SDS011;47897;50.322;18.892;2022-11-21T01:38:59;183.70;;;54.90;;
61938;SDS011;47897;50.322;18.892;2022-11-21T01:41:27;194.30;;;55.10;;
